createdAt,value
2022-12-15T00:00:23.099Z,-3.58
2022-12-15T00:03:30.080Z,-3.65
2022-12-15T00:06:19.167Z,-3.74
2022-12-15T00:09:08.520Z,-3.82
2022-12-15T00:11:59.558Z,-3.88
2022-12-15T00:14:46.109Z,-3.92
2022-12-15T00:17:32.738Z,-3.94
2022-12-15T00:20:18.990Z,-3.95
2022-12-15T00:23:05.207Z,-3.96
2022-12-15T00:25:51.694Z,-3.99
2022-12-15T00:28:38.417Z,-4.02
2022-12-15T00:31:25.181Z,-4.03
2022-12-15T00:34:11.711Z,-4.02
2022-12-15T00:36:58.553Z,-4.02
2022-12-15T00:39:26.496Z,-4.02
2022-12-15T00:41:54.216Z,-4.03
2022-12-15T00:44:23.848Z,-4.02
2022-12-15T00:46:54.578Z,-4.01
2022-12-15T00:49:44.561Z,-4.01
2022-12-15T00:52:31.968Z,-3.96
2022-12-15T00:55:18.706Z,-3.94
2022-12-15T00:58:05.440Z,-3.93
2022-12-15T01:03:52.450Z,-3.95
2022-12-15T01:06:40.061Z,-3.97
2022-12-15T01:09:28.893Z,-3.99
2022-12-15T01:12:16.170Z,-3.99
2022-12-15T01:15:02.676Z,-4.01
2022-12-15T01:17:52.085Z,-4.04
2022-12-15T01:20:22.271Z,-4.04
2022-12-15T01:23:14.266Z,-4.02
2022-12-15T01:25:43.668Z,-3.96
2022-12-15T01:28:18.172Z,-3.94
2022-12-15T01:30:46.634Z,-3.92
2022-12-15T01:33:17.420Z,-3.90
2022-12-15T01:35:45.614Z,-3.86
2022-12-15T01:38:13.416Z,-3.83
2022-12-15T01:40:47.447Z,-3.82
2022-12-15T01:43:24.057Z,-3.81
2022-12-15T01:46:10.282Z,-3.79
2022-12-15T01:48:51.891Z,-3.80
2022-12-15T01:51:25.703Z,-3.80
2022-12-15T01:54:01.761Z,-3.80
2022-12-15T01:56:37.703Z,-3.79
2022-12-15T01:59:11.629Z,-3.79
2022-12-15T02:01:39.669Z,-3.77
2022-12-15T02:04:11.548Z,-3.74
2022-12-15T02:06:39.266Z,-3.71
2022-12-15T02:09:07.420Z,-3.70
2022-12-15T02:11:47.637Z,-3.71
2022-12-15T02:14:28.476Z,-3.69
2022-12-15T02:17:07.712Z,-3.66
2022-12-15T02:19:52.288Z,-3.63
2022-12-15T02:22:51.225Z,-3.60
2022-12-15T02:25:42.927Z,-3.55
2022-12-15T02:28:15.423Z,-3.55
2022-12-15T02:31:20.115Z,-3.52
2022-12-15T02:34:04.095Z,-3.49
2022-12-15T02:36:42.344Z,-3.44
2022-12-15T02:39:12.978Z,-3.38
2022-12-15T02:41:46.280Z,-3.35
2022-12-15T02:44:19.876Z,-3.30
2022-12-15T02:47:17.337Z,-3.28
2022-12-15T02:50:00.609Z,-3.26
2022-12-15T02:53:08.068Z,-3.24
2022-12-15T02:55:56.144Z,-3.22
2022-12-15T02:58:34.103Z,-3.25
2022-12-15T03:01:35.591Z,-3.26
2022-12-15T03:04:07.062Z,-3.25
2022-12-15T03:06:36.048Z,-3.25
2022-12-15T03:09:04.101Z,-3.25
2022-12-15T03:11:32.221Z,-3.24
2022-12-15T03:14:00.184Z,-3.23
2022-12-15T03:16:27.907Z,-3.23
2022-12-15T03:18:56.025Z,-3.24
2022-12-15T03:21:24.034Z,-3.24
2022-12-15T03:23:52.013Z,-3.24
2022-12-15T03:26:19.945Z,-3.22
2022-12-15T03:28:47.901Z,-3.21
2022-12-15T03:31:15.692Z,-3.18
2022-12-15T03:33:43.502Z,-3.14
2022-12-15T03:36:11.551Z,-3.11
2022-12-15T03:38:39.286Z,-3.11
2022-12-15T03:41:07.012Z,-3.11
2022-12-15T03:43:34.986Z,-3.12
2022-12-15T03:46:02.770Z,-3.10
2022-12-15T03:48:30.588Z,-3.07
2022-12-15T03:50:59.203Z,-3.06
2022-12-15T03:53:27.065Z,-3.03
2022-12-15T03:55:54.969Z,-3.02
2022-12-15T03:58:23.577Z,-3.03
2022-12-15T04:00:51.293Z,-3.01
2022-12-15T04:03:19.294Z,-2.99
2022-12-15T04:05:47.399Z,-2.96
2022-12-15T04:08:15.136Z,-2.95
2022-12-15T04:10:43.718Z,-2.94
2022-12-15T04:13:12.097Z,-2.91
2022-12-15T04:15:40.560Z,-2.89
2022-12-15T04:18:10.718Z,-2.86
2022-12-15T04:20:40.125Z,-2.84
2022-12-15T04:23:08.162Z,-2.82
2022-12-15T04:25:55.046Z,-2.80
2022-12-15T04:28:42.286Z,-2.78
2022-12-15T04:31:36.080Z,-2.76
2022-12-15T04:34:31.948Z,-2.72
2022-12-15T04:37:18.847Z,-2.70
2022-12-15T04:40:10.275Z,-2.68
2022-12-15T04:43:04.486Z,-2.66
2022-12-15T04:45:51.876Z,-2.65
2022-12-15T04:48:38.533Z,-2.63
2022-12-15T04:51:25.155Z,-2.62
2022-12-15T04:54:11.658Z,-2.61
2022-12-15T04:56:58.448Z,-2.61
2022-12-15T04:59:44.785Z,-2.59
2022-12-15T05:02:31.401Z,-2.57
2022-12-15T05:05:18.664Z,-2.58
2022-12-15T05:08:05.188Z,-2.56
2022-12-15T05:10:51.517Z,-2.53
2022-12-15T05:13:38.246Z,-2.50
2022-12-15T05:16:25.084Z,-2.46
2022-12-15T05:19:12.071Z,-2.43
2022-12-15T05:21:59.151Z,-2.41
2022-12-15T05:24:46.037Z,-2.39
2022-12-15T05:27:32.614Z,-2.36
2022-12-15T05:30:19.228Z,-2.32
2022-12-15T05:32:47.764Z,-2.30
2022-12-15T05:35:18.015Z,-2.30
2022-12-15T05:37:45.681Z,-2.29
2022-12-15T05:40:13.763Z,-2.26
2022-12-15T05:42:41.787Z,-2.24
2022-12-15T05:45:10.318Z,-2.21
2022-12-15T05:47:38.018Z,-2.20
2022-12-15T05:50:06.529Z,-2.18
2022-12-15T05:52:34.192Z,-2.14
2022-12-15T05:55:02.088Z,-2.11
2022-12-15T05:57:30.184Z,-2.09
2022-12-15T05:59:57.836Z,-2.07
2022-12-15T06:02:25.688Z,-2.06
2022-12-15T06:04:53.790Z,-2.07
2022-12-15T06:07:21.665Z,-2.06
2022-12-15T06:09:49.638Z,-2.04
2022-12-15T06:12:17.977Z,-2.02
2022-12-15T06:14:45.796Z,-2.01
2022-12-15T06:17:18.877Z,-2.00
2022-12-15T06:19:46.820Z,-2.00
2022-12-15T06:22:14.769Z,-2.00
2022-12-15T06:24:43.104Z,-2.00
2022-12-15T06:27:10.943Z,-2.00
2022-12-15T06:29:38.605Z,-2.00
2022-12-15T06:32:06.341Z,-2.00
2022-12-15T06:34:34.584Z,-1.99
2022-12-15T06:37:02.415Z,-1.99
2022-12-15T06:39:30.505Z,-1.98
2022-12-15T06:41:58.550Z,-1.97
2022-12-15T06:44:26.284Z,-1.96
2022-12-15T06:46:54.970Z,-1.94
2022-12-15T06:49:22.937Z,-1.94
2022-12-15T06:51:50.680Z,-1.95
2022-12-15T06:54:19.083Z,-1.96
2022-12-15T06:56:47.070Z,-1.95
2022-12-15T06:59:17.956Z,-1.95
2022-12-15T07:01:46.591Z,-1.95
2022-12-15T07:04:14.698Z,-1.94
2022-12-15T07:06:42.726Z,-1.93
2022-12-15T07:09:14.021Z,-1.93
2022-12-15T07:11:42.059Z,-1.95
2022-12-15T07:14:12.471Z,-1.95
2022-12-15T07:16:41.209Z,-1.95
2022-12-15T07:19:12.930Z,-1.95
2022-12-15T07:21:41.357Z,-1.93
2022-12-15T07:24:11.914Z,-1.90
2022-12-15T07:26:40.768Z,-1.93
2022-12-15T07:29:10.170Z,-1.93
2022-12-15T07:31:38.177Z,-1.92
2022-12-15T07:34:06.265Z,-1.90
2022-12-15T07:36:34.918Z,-1.90
2022-12-15T07:39:04.938Z,-1.90
2022-12-15T07:41:32.802Z,-1.89
2022-12-15T07:44:02.387Z,-1.85
2022-12-15T07:46:30.242Z,-1.82
2022-12-15T07:48:58.626Z,-1.77
2022-12-15T07:51:28.370Z,-1.73
2022-12-15T07:53:56.216Z,-1.72
2022-12-15T07:56:24.214Z,-1.71
2022-12-15T07:58:52.238Z,-1.72
2022-12-15T08:01:22.861Z,-1.73
2022-12-15T08:03:50.934Z,-1.76
2022-12-15T08:06:19.132Z,-1.76
2022-12-15T08:08:49.920Z,-1.76
2022-12-15T08:11:22.645Z,-1.74
2022-12-15T08:14:10.699Z,-1.69
2022-12-15T08:16:39.606Z,-1.67
2022-12-15T08:19:11.212Z,-1.62
2022-12-15T08:21:40.984Z,-1.58
2022-12-15T08:24:10.974Z,-1.54
2022-12-15T08:26:39.124Z,-1.52
2022-12-15T08:29:49.597Z,-1.50
2022-12-15T08:31:58.839Z,-1.52
2022-12-15T08:34:27.364Z,-1.53
2022-12-15T08:36:55.751Z,-1.50
2022-12-15T08:39:23.501Z,-1.46
2022-12-15T08:41:51.653Z,-1.46
2022-12-15T08:44:19.515Z,-1.48
2022-12-15T08:46:47.319Z,-1.48
2022-12-15T08:49:21.718Z,-1.44
2022-12-15T08:51:50.946Z,-1.44
2022-12-15T08:54:20.103Z,-1.40
2022-12-15T08:56:48.135Z,-1.32
2022-12-15T08:59:15.967Z,-1.24
2022-12-15T09:01:44.296Z,-1.17
2022-12-15T09:04:12.264Z,-1.08
2022-12-15T09:06:40.115Z,-1.02
2022-12-15T09:09:10.692Z,-0.98
2022-12-15T09:11:38.434Z,-0.94
2022-12-15T09:14:06.259Z,-0.91
2022-12-15T09:16:34.371Z,-0.88
2022-12-15T09:19:02.607Z,-0.84
2022-12-15T09:21:30.889Z,-0.77
2022-12-15T09:24:03.069Z,-0.71
2022-12-15T09:26:34.269Z,-0.64
2022-12-15T09:29:02.502Z,-0.55
2022-12-15T09:31:36.365Z,-0.44
2022-12-15T09:34:04.298Z,-0.32
2022-12-15T09:36:35.280Z,-0.25
2022-12-15T09:39:03.221Z,-0.28
2022-12-15T09:41:34.868Z,-0.35
2022-12-15T09:44:12.346Z,-0.37
2022-12-15T09:47:00.257Z,-0.37
2022-12-15T09:49:46.556Z,-0.42
2022-12-15T09:52:18.467Z,-0.52
2022-12-15T09:54:46.637Z,-0.61
2022-12-15T09:57:33.013Z,-0.70
2022-12-15T10:00:13.008Z,-0.83
2022-12-15T10:02:56.265Z,-0.92
2022-12-15T10:05:49.991Z,-0.98
2022-12-15T10:08:16.767Z,-1.04
2022-12-15T10:10:50.624Z,-1.04
2022-12-15T10:13:45.209Z,-0.98
2022-12-15T10:16:24.711Z,-0.90
2022-12-15T10:18:57.547Z,-0.84
2022-12-15T10:21:31.367Z,-0.77
2022-12-15T10:24:10.045Z,-0.73
2022-12-15T10:26:41.240Z,-0.67
2022-12-15T10:29:24.596Z,-0.63
2022-12-15T10:31:58.103Z,-0.56
2022-12-15T10:34:38.384Z,-0.54
2022-12-15T10:37:11.684Z,-0.57
2022-12-15T10:39:43.277Z,-0.62
2022-12-15T10:42:17.532Z,-0.66
2022-12-15T10:44:50.579Z,-0.66
2022-12-15T10:47:30.199Z,-0.70
2022-12-15T10:50:25.236Z,-0.71
2022-12-15T10:52:54.030Z,-0.73
2022-12-15T10:55:50.074Z,-0.75
2022-12-15T10:58:23.346Z,-0.73
2022-12-15T11:01:15.120Z,-0.76
2022-12-15T11:03:43.319Z,-0.80
2022-12-15T11:06:21.997Z,-0.84
2022-12-15T11:08:53.261Z,-0.89
2022-12-15T11:11:53.086Z,-0.91
2022-12-15T11:14:30.579Z,-0.87
2022-12-15T11:16:59.394Z,-0.83
2022-12-15T11:19:34.005Z,-0.77
2022-12-15T11:22:24.276Z,-0.64
2022-12-15T11:25:02.903Z,-0.53
2022-12-15T11:27:38.965Z,-0.43
2022-12-15T11:30:19.569Z,-0.35
2022-12-15T11:32:54.232Z,-0.25
2022-12-15T11:35:30.109Z,-0.16
2022-12-15T11:38:19.180Z,-0.07
2022-12-15T11:40:47.380Z,0.02
2022-12-15T11:44:16.054Z,0.09
2022-12-15T11:47:03.020Z,0.18
2022-12-15T11:50:26.512Z,0.25
2022-12-15T11:53:13.149Z,0.40
2022-12-15T11:56:16.532Z,0.45
2022-12-15T11:59:10.493Z,0.51
2022-12-15T12:01:55.433Z,0.63
2022-12-15T12:04:29.460Z,0.75
2022-12-15T12:07:23.923Z,0.84
2022-12-15T12:10:13.381Z,0.97
2022-12-15T12:12:52.730Z,1.08
2022-12-15T12:15:37.718Z,1.21
2022-12-15T12:18:14.523Z,1.38
2022-12-15T12:20:50.274Z,1.56
2022-12-15T12:23:35.671Z,1.75
2022-12-15T12:26:22.573Z,1.96
2022-12-15T12:28:59.398Z,2.16
2022-12-15T12:32:04.480Z,2.34
2022-12-15T12:35:32.093Z,2.51
2022-12-15T12:37:56.878Z,2.72
2022-12-15T12:40:58.119Z,2.85
2022-12-15T12:43:36.326Z,2.97
2022-12-15T12:46:17.657Z,3.10
2022-12-15T12:49:03.122Z,3.26
2022-12-15T12:51:34.305Z,3.44
2022-12-15T12:54:02.712Z,3.59
2022-12-15T12:56:36.403Z,3.70
2022-12-15T12:59:29.187Z,3.85
2022-12-15T13:02:11.699Z,4.04
2022-12-15T13:04:44.499Z,4.22
2022-12-15T13:08:13.960Z,4.39
2022-12-15T13:10:44.070Z,4.58
2022-12-15T13:13:32.270Z,4.74
2022-12-15T13:16:26.719Z,4.95
2022-12-15T13:18:58.225Z,5.06
2022-12-15T13:21:42.459Z,5.13
2022-12-15T13:24:33.656Z,5.20
2022-12-15T13:27:11.523Z,5.26
2022-12-15T13:30:02.045Z,5.34
2022-12-15T13:32:40.816Z,5.36
2022-12-15T13:35:14.643Z,5.32
2022-12-15T13:37:59.862Z,5.35
2022-12-15T13:40:37.008Z,5.24
2022-12-15T13:43:05.039Z,5.04
2022-12-15T13:45:48.695Z,4.99
2022-12-15T13:48:26.157Z,5.02
2022-12-15T13:51:21.300Z,5.02
2022-12-15T13:54:31.414Z,5.02
2022-12-15T13:57:11.000Z,5.02
2022-12-15T14:00:05.195Z,4.86
2022-12-15T14:02:39.792Z,4.58
2022-12-15T14:05:21.842Z,4.35
2022-12-15T14:07:57.377Z,4.08
2022-12-15T14:10:39.564Z,3.80
2022-12-15T14:13:30.151Z,3.56
2022-12-15T14:16:15.326Z,3.35
2022-12-15T14:18:44.581Z,3.12
2022-12-15T14:21:21.894Z,2.88
2022-12-15T14:24:36.320Z,2.62
2022-12-15T14:26:41.433Z,2.37
2022-12-15T14:29:10.651Z,2.15
2022-12-15T14:31:38.551Z,1.92
2022-12-15T14:34:08.354Z,1.68
2022-12-15T14:36:37.018Z,1.43
2022-12-15T14:39:14.718Z,1.21
2022-12-15T14:41:49.003Z,0.95
2022-12-15T14:47:20.179Z,0.44
2022-12-15T14:49:48.779Z,0.24
2022-12-15T14:52:28.308Z,0.03
2022-12-15T14:54:59.055Z,-0.14
2022-12-15T14:57:46.817Z,-0.29
2022-12-15T15:00:36.715Z,-0.46
2022-12-15T15:03:19.085Z,-0.62
2022-12-15T15:05:54.167Z,-0.75
2022-12-15T15:08:35.093Z,-0.87
2022-12-15T15:11:35.585Z,-0.99
2022-12-15T15:14:09.047Z,-1.14
2022-12-15T15:16:37.081Z,-1.24
2022-12-15T15:19:05.559Z,-1.31
2022-12-15T15:21:40.531Z,-1.40
2022-12-15T15:24:11.617Z,-1.51
2022-12-15T15:26:40.745Z,-1.62
2022-12-15T15:29:36.603Z,-1.71
2022-12-15T15:32:14.721Z,-1.82
2022-12-15T15:34:43.066Z,-1.91
2022-12-15T15:37:25.388Z,-2.01
2022-12-15T15:39:55.028Z,-2.15
2022-12-15T15:42:26.535Z,-2.24
2022-12-15T15:44:57.774Z,-2.32
2022-12-15T15:47:26.736Z,-2.39
2022-12-15T15:49:58.372Z,-2.48
2022-12-15T15:52:28.495Z,-2.52
2022-12-15T15:54:56.512Z,-2.56
2022-12-15T15:57:24.337Z,-2.58
2022-12-15T15:59:52.216Z,-2.64
2022-12-15T16:02:20.315Z,-2.67
2022-12-15T16:04:48.363Z,-2.69
2022-12-15T16:07:22.195Z,-2.70
2022-12-15T16:09:51.772Z,-2.72
2022-12-15T16:12:35.903Z,-2.75
2022-12-15T16:15:12.981Z,-2.78
2022-12-15T16:17:41.042Z,-2.80
2022-12-15T16:20:10.875Z,-2.83
2022-12-15T16:22:39.501Z,-2.87
2022-12-15T16:25:33.046Z,-2.91
2022-12-15T16:28:12.422Z,-2.94
2022-12-15T16:30:41.577Z,-2.96
2022-12-15T16:33:09.834Z,-2.98
2022-12-15T16:35:38.413Z,-3.04
2022-12-15T16:38:14.500Z,-3.11
2022-12-15T16:40:42.513Z,-3.19
2022-12-15T16:43:15.496Z,-3.25
2022-12-15T16:45:45.701Z,-3.31
2022-12-15T16:48:15.052Z,-3.35
2022-12-15T16:50:44.123Z,-3.40
2022-12-15T16:53:18.087Z,-3.44
2022-12-15T16:55:48.127Z,-3.49
2022-12-15T16:58:17.306Z,-3.53
2022-12-15T17:00:45.748Z,-3.55
2022-12-15T17:03:15.452Z,-3.61
2022-12-15T17:05:51.534Z,-3.65
2022-12-15T17:08:25.365Z,-3.69
2022-12-15T17:10:53.742Z,-3.76
2022-12-15T17:13:37.756Z,-3.83
2022-12-15T17:16:11.760Z,-3.91
2022-12-15T17:18:39.551Z,-3.97
2022-12-15T17:21:16.023Z,-3.99
2022-12-15T17:23:47.575Z,-4.01
2022-12-15T17:26:28.517Z,-4.02
2022-12-15T17:29:02.394Z,-4.03
2022-12-15T17:31:35.685Z,-4.04
2022-12-15T17:34:30.587Z,-4.05
2022-12-15T17:37:00.879Z,-4.05
2022-12-15T17:39:29.489Z,-4.06
2022-12-15T17:42:01.472Z,-4.04
2022-12-15T17:44:37.345Z,-4.02
2022-12-15T17:47:08.271Z,-3.99
2022-12-15T17:49:38.295Z,-3.96
2022-12-15T17:52:34.286Z,-3.94
2022-12-15T17:55:06.419Z,-3.92
2022-12-15T17:57:34.260Z,-3.90
2022-12-15T18:00:03.767Z,-3.85
2022-12-15T18:02:33.690Z,-3.81
2022-12-15T18:05:01.803Z,-3.76
2022-12-15T18:07:29.688Z,-3.74
2022-12-15T18:09:57.817Z,-3.73
2022-12-15T18:12:26.991Z,-3.72
2022-12-15T18:14:56.135Z,-3.72
2022-12-15T18:17:24.141Z,-3.73
2022-12-15T18:19:52.004Z,-3.72
2022-12-15T18:22:23.255Z,-3.71
2022-12-15T18:24:53.761Z,-3.69
2022-12-15T18:27:25.004Z,-3.68
2022-12-15T18:29:53.699Z,-3.65
2022-12-15T18:32:24.587Z,-3.62
2022-12-15T18:34:53.605Z,-3.58
2022-12-15T18:37:24.969Z,-3.53
2022-12-15T18:39:53.430Z,-3.49
2022-12-15T18:42:23.114Z,-3.43
2022-12-15T18:44:52.474Z,-3.41
2022-12-15T18:47:23.174Z,-3.39
2022-12-15T18:49:51.624Z,-3.38
2022-12-15T18:52:22.462Z,-3.42
2022-12-15T18:54:52.751Z,-3.47
2022-12-15T18:57:37.904Z,-3.50
2022-12-15T19:00:15.041Z,-3.52
2022-12-15T19:02:43.155Z,-3.52
2022-12-15T19:05:27.888Z,-3.53
2022-12-15T19:08:03.017Z,-3.54
2022-12-15T19:10:34.712Z,-3.57
2022-12-15T19:13:02.695Z,-3.58
2022-12-15T19:15:30.425Z,-3.62
2022-12-15T19:18:17.165Z,-3.65
2022-12-15T19:21:03.788Z,-3.65
2022-12-15T19:23:32.267Z,-3.64
2022-12-15T19:26:00.441Z,-3.64
2022-12-15T19:28:28.473Z,-3.63
2022-12-15T19:30:56.570Z,-3.63
2022-12-15T19:33:24.437Z,-3.61
2022-12-15T19:35:54.892Z,-3.62
2022-12-15T19:38:25.797Z,-3.63
2022-12-15T19:40:55.305Z,-3.62
2022-12-15T19:43:24.562Z,-3.59
2022-12-15T19:45:53.264Z,-3.53
2022-12-15T19:48:23.788Z,-3.50
2022-12-15T19:50:54.668Z,-3.46
2022-12-15T19:53:28.799Z,-3.43
2022-12-15T19:56:01.474Z,-3.39
2022-12-15T19:58:32.293Z,-3.34
2022-12-15T20:01:04.471Z,-3.35
2022-12-15T20:03:34.693Z,-3.37
2022-12-15T20:06:04.315Z,-3.37
2022-12-15T20:08:38.349Z,-3.35
2022-12-15T20:11:15.033Z,-3.32
2022-12-15T20:13:42.957Z,-3.30
2022-12-15T20:16:10.965Z,-3.28
2022-12-15T20:18:38.682Z,-3.26
2022-12-15T20:21:06.758Z,-3.23
2022-12-15T20:23:36.518Z,-3.20
2022-12-15T20:26:05.321Z,-3.19
2022-12-15T20:28:35.840Z,-3.20
2022-12-15T20:31:03.877Z,-3.20
2022-12-15T20:33:31.856Z,-3.19
2022-12-15T20:36:00.134Z,-3.20
2022-12-15T20:38:33.625Z,-3.22
2022-12-15T20:41:02.819Z,-3.26
2022-12-15T20:43:32.534Z,-3.30
2022-12-15T20:46:00.808Z,-3.34
2022-12-15T20:48:30.356Z,-3.36
2022-12-15T20:50:58.454Z,-3.36
2022-12-15T20:53:27.438Z,-3.33
2022-12-15T20:55:56.826Z,-3.31
2022-12-15T20:58:29.763Z,-3.30
2022-12-15T21:01:00.778Z,-3.29
2022-12-15T21:03:33.458Z,-3.30
2022-12-15T21:06:01.567Z,-3.32
2022-12-15T21:08:31.409Z,-3.32
2022-12-15T21:11:21.005Z,-3.31
2022-12-15T21:13:49.421Z,-3.30
2022-12-15T21:16:22.459Z,-3.24
2022-12-15T21:19:18.505Z,-3.21
2022-12-15T21:21:44.227Z,-3.18
2022-12-15T21:24:21.181Z,-3.14
2022-12-15T21:26:50.557Z,-3.11
2022-12-15T21:29:21.131Z,-3.07
2022-12-15T21:31:49.210Z,-3.04
2022-12-15T21:34:17.528Z,-3.03
2022-12-15T21:36:49.866Z,-3.06
2022-12-15T21:39:25.408Z,-3.08
2022-12-15T21:41:55.123Z,-3.11
2022-12-15T21:44:23.551Z,-3.16
2022-12-15T21:46:51.306Z,-3.18
2022-12-15T21:49:20.547Z,-3.19
2022-12-15T21:51:51.818Z,-3.18
2022-12-15T21:54:39.978Z,-3.17
2022-12-15T21:57:11.964Z,-3.14
2022-12-15T21:59:41.695Z,-3.07
2022-12-15T22:02:26.195Z,-3.02
2022-12-15T22:04:54.882Z,-3.02
2022-12-15T22:07:23.362Z,-3.04
2022-12-15T22:09:51.820Z,-3.05
2022-12-15T22:12:24.136Z,-3.08
2022-12-15T22:14:52.198Z,-3.09
2022-12-15T22:17:22.127Z,-3.11
2022-12-15T22:19:50.145Z,-3.15
2022-12-15T22:22:17.942Z,-3.15
2022-12-15T22:24:45.701Z,-3.16
2022-12-15T22:27:22.665Z,-3.17
2022-12-15T22:29:50.605Z,-3.13
2022-12-15T22:32:18.357Z,-3.11
2022-12-15T22:34:46.595Z,-3.14
2022-12-15T22:37:14.342Z,-3.15
2022-12-15T22:39:42.205Z,-3.14
2022-12-15T22:42:16.226Z,-3.16
2022-12-15T22:44:44.949Z,-3.19
2022-12-15T22:47:14.116Z,-3.21
2022-12-15T22:49:42.439Z,-3.21
2022-12-15T22:52:20.995Z,-3.20
2022-12-15T22:54:48.848Z,-3.21
2022-12-15T22:57:28.403Z,-3.21
2022-12-15T23:00:03.013Z,-3.21
2022-12-15T23:02:38.939Z,-3.16
2022-12-15T23:05:07.994Z,-3.15
2022-12-15T23:07:35.964Z,-3.19
2022-12-15T23:10:22.806Z,-3.23
2022-12-15T23:12:54.590Z,-3.23
2022-12-15T23:15:42.717Z,-3.24
2022-12-15T23:18:10.970Z,-3.24
2022-12-15T23:20:38.749Z,-3.22
2022-12-15T23:23:07.299Z,-3.22
2022-12-15T23:25:35.492Z,-3.21
2022-12-15T23:28:03.361Z,-3.17
2022-12-15T23:30:31.284Z,-3.14
2022-12-15T23:32:59.832Z,-3.11
2022-12-15T23:35:27.782Z,-3.07
2022-12-15T23:37:57.373Z,-3.02
2022-12-15T23:40:25.623Z,-2.94
2022-12-15T23:42:54.073Z,-2.86
2022-12-15T23:45:23.442Z,-2.80
2022-12-15T23:47:51.502Z,-2.77
2022-12-15T23:50:19.275Z,-2.81
2022-12-15T23:52:50.357Z,-2.86
2022-12-15T23:55:19.813Z,-2.93
2022-12-15T23:57:47.544Z,-3.01
